Time;durP1;ratioP1;P1;durP2;ratioP2;P2;SDS_P1;SDS_P2;PMS_P1;PMS_P2;Temp;Humidity;BMP_temperature;BMP_pressure;BME280_temperature;BME280_humidity;BME280_pressure;Samples;Min_cycle;Max_cycle;Signal;HPM_P1;HPM_P2
2022/10/31 00:00:53;;;;;;;13.55;5.90;;;;;;;;;;5048130;28;20395;-71
2022/10/31 00:03:18;;;;;;;11.75;5.47;;;;;;;;;;5049094;28;20037;-70
2022/10/31 00:05:46;;;;;;;9.02;5.43;;;;;;;;;;5047952;28;20032;-70
2022/10/31 00:08:12;;;;;;;13.15;5.85;;;;;;;;;;5048449;28;20037;-70
2022/10/31 00:10:39;;;;;;;11.43;5.05;;;;;;;;;;5037830;28;20044;-70
2022/10/31 00:13:04;;;;;;;10.25;4.97;;;;;;;;;;5048901;28;20036;-70
2022/10/31 00:15:30;;;;;;;9.25;4.80;;;;;;;;;;5039848;28;20044;-71
2022/10/31 00:17:55;;;;;;;10.68;5.13;;;;;;;;;;5037862;28;20041;-70
2022/10/31 00:20:20;;;;;;;11.00;5.47;;;;;;;;;;5027958;28;20661;-71
2022/10/31 00:22:46;;;;;;;9.10;5.30;;;;;;;;;;5028143;28;20037;-71
2022/10/31 00:25:11;;;;;;;10.18;4.47;;;;;;;;;;5042782;28;20056;-70
2022/10/31 00:27:36;;;;;;;9.63;4.97;;;;;;;;;;5049629;28;20017;-70
2022/10/31 00:30:02;;;;;;;11.60;5.93;;;;;;;;;;5048419;28;20041;-71
2022/10/31 00:32:30;;;;;;;11.27;5.25;;;;;;;;;;5047867;28;20577;-71
2022/10/31 00:34:55;;;;;;;8.80;4.50;;;;;;;;;;5047770;28;20556;-70
2022/10/31 00:37:20;;;;;;;14.82;5.70;;;;;;;;;;5044673;28;20041;-71
2022/10/31 00:39:48;;;;;;;14.23;5.32;;;;;;;;;;5038476;28;20017;-70
2022/10/31 00:42:14;;;;;;;8.00;4.75;;;;;;;;;;5042750;28;20017;-70
2022/10/31 00:44:39;;;;;;;10.88;5.35;;;;;;;;;;5028684;28;20040;-71
2022/10/31 00:47:04;;;;;;;9.45;5.38;;;;;;;;;;5026774;28;20044;-70
2022/10/31 00:49:29;;;;;;;9.30;4.68;;;;;;;;;;5027354;28;20037;-70
2022/10/31 00:51:55;;;;;;;11.63;4.97;;;;;;;;;;5027349;28;20025;-70
2022/10/31 00:54:20;;;;;;;14.02;4.97;;;;;;;;;;5045140;28;20825;-70
2022/10/31 00:56:45;;;;;;;11.10;4.75;;;;;;;;;;5058009;28;20032;-70
2022/10/31 00:59:11;;;;;;;11.80;5.50;;;;;;;;;;5028609;28;20040;-71
2022/10/31 01:01:36;;;;;;;12.85;5.00;;;;;;;;;;5026868;28;20053;-70
2022/10/31 01:04:01;;;;;;;12.98;5.13;;;;;;;;;;5054169;28;20574;-71
2022/10/31 01:06:26;;;;;;;10.38;5.20;;;;;;;;;;5060953;28;20033;-70
2022/10/31 01:08:52;;;;;;;14.27;5.43;;;;;;;;;;5044382;28;20573;-71
2022/10/31 01:11:20;;;;;;;11.13;5.07;;;;;;;;;;5041709;28;20040;-70
2022/10/31 01:13:47;;;;;;;12.55;5.32;;;;;;;;;;5048369;28;20029;-71
2022/10/31 01:16:17;;;;;;;13.82;4.53;;;;;;;;;;5047003;28;20041;-70
2022/10/31 01:18:43;;;;;;;13.30;5.57;;;;;;;;;;5047432;28;20028;-70
2022/10/31 01:21:17;;;;;;;8.73;4.95;;;;;;;;;;5043192;28;20047;-70
2022/10/31 01:23:42;;;;;;;12.23;5.32;;;;;;;;;;5046090;28;20588;-71
2022/10/31 01:26:09;;;;;;;12.35;5.45;;;;;;;;;;5042365;28;20147;-70
2022/10/31 01:28:37;;;;;;;12.55;5.70;;;;;;;;;;5043446;28;20040;-70
2022/10/31 01:31:05;;;;;;;12.65;5.28;;;;;;;;;;5042873;28;20035;-70
2022/10/31 01:33:30;;;;;;;16.08;5.30;;;;;;;;;;5043968;28;20025;-70
2022/10/31 01:35:56;;;;;;;15.25;5.78;;;;;;;;;;5045308;28;20460;-70
2022/10/31 01:38:22;;;;;;;15.07;5.95;;;;;;;;;;5043764;28;20033;-70
2022/10/31 01:40:48;;;;;;;17.70;5.93;;;;;;;;;;5030491;28;20116;-70
2022/10/31 01:43:13;;;;;;;14.98;5.72;;;;;;;;;;5026665;28;20484;-71
2022/10/31 01:45:41;;;;;;;19.98;6.18;;;;;;;;;;5026739;28;20694;-70
2022/10/31 01:48:12;;;;;;;12.88;5.63;;;;;;;;;;5038350;28;20596;-70
2022/10/31 01:50:39;;;;;;;11.35;5.35;;;;;;;;;;5046689;28;20037;-70
2022/10/31 01:53:08;;;;;;;14.73;6.15;;;;;;;;;;5046569;28;20029;-70
2022/10/31 01:55:35;;;;;;;11.98;5.75;;;;;;;;;;5047814;28;20041;-70
2022/10/31 01:58:07;;;;;;;11.73;5.50;;;;;;;;;;5042351;28;20025;-70
2022/10/31 02:00:32;;;;;;;13.20;6.35;;;;;;;;;;5050550;28;20036;-70
2022/10/31 02:02:59;;;;;;;12.00;5.53;;;;;;;;;;5054166;28;20056;-70
2022/10/31 02:05:27;;;;;;;10.20;5.03;;;;;;;;;;5046495;28;20040;-70
2022/10/31 02:08:12;;;;;;;15.55;5.50;;;;;;;;;;5049072;28;20116;-70
2022/10/31 02:10:38;;;;;;;12.10;5.05;;;;;;;;;;5044984;28;20560;-70
2022/10/31 02:13:07;;;;;;;8.57;4.43;;;;;;;;;;5050493;28;20060;-71
2022/10/31 02:15:33;;;;;;;8.93;4.85;;;;;;;;;;5047844;28;20036;-70
2022/10/31 02:17:59;;;;;;;10.57;4.93;;;;;;;;;;5042893;28;20041;-70
2022/10/31 02:20:29;;;;;;;11.27;5.18;;;;;;;;;;5038660;28;20044;-70
2022/10/31 02:23:14;;;;;;;12.15;5.22;;;;;;;;;;5048595;28;20124;-70
2022/10/31 02:26:07;;;;;;;12.07;5.18;;;;;;;;;;5051544;28;20037;-70
2022/10/31 02:29:12;;;;;;;10.70;4.82;;;;;;;;;;5046743;28;20052;-70
2022/10/31 02:31:46;;;;;;;15.23;5.53;;;;;;;;;;5048650;28;20517;-71
2022/10/31 02:34:25;;;;;;;17.25;5.35;;;;;;;;;;5048641;28;20686;-70
2022/10/31 02:37:01;;;;;;;11.07;5.13;;;;;;;;;;5041187;28;20032;-70
2022/10/31 02:39:34;;;;;;;9.13;4.20;;;;;;;;;;5049042;28;20462;-70
2022/10/31 02:42:13;;;;;;;11.15;4.70;;;;;;;;;;5043617;28;20506;-70
2022/10/31 02:44:45;;;;;;;8.55;4.43;;;;;;;;;;5042854;28;20499;-70
2022/10/31 02:47:15;;;;;;;8.65;4.30;;;;;;;;;;5040247;28;20123;-70
2022/10/31 02:49:43;;;;;;;8.57;4.43;;;;;;;;;;5052769;28;20041;-71
2022/10/31 02:52:19;;;;;;;12.45;4.82;;;;;;;;;;5047616;28;20566;-71
2022/10/31 02:54:45;;;;;;;19.27;5.20;;;;;;;;;;5048322;28;20041;-70
2022/10/31 02:57:12;;;;;;;9.98;5.70;;;;;;;;;;5049134;28;20025;-71
2022/10/31 02:59:44;;;;;;;8.85;4.88;;;;;;;;;;5046249;28;20056;-70
2022/10/31 03:02:17;;;;;;;12.27;4.82;;;;;;;;;;5044675;28;20043;-70
2022/10/31 03:05:13;;;;;;;10.70;4.38;;;;;;;;;;5030387;28;20038;-70
2022/10/31 03:07:45;;;;;;;9.13;4.47;;;;;;;;;;5028903;28;20041;-71
2022/10/31 03:10:37;;;;;;;9.75;5.20;;;;;;;;;;5028210;28;20460;-71
2022/10/31 03:13:25;;;;;;;12.18;5.03;;;;;;;;;;5031565;28;20131;-70
2022/10/31 03:15:55;;;;;;;7.80;4.68;;;;;;;;;;5047740;28;20084;-71
2022/10/31 03:18:29;;;;;;;10.52;4.78;;;;;;;;;;5047835;28;20077;-71
2022/10/31 03:21:04;;;;;;;9.90;5.20;;;;;;;;;;5049141;28;20120;-70
2022/10/31 03:23:31;;;;;;;9.65;5.03;;;;;;;;;;5048574;28;20033;-71
2022/10/31 03:26:00;;;;;;;11.13;5.80;;;;;;;;;;5040625;28;20025;-70
2022/10/31 03:28:32;;;;;;;9.70;5.15;;;;;;;;;;5052089;28;20033;-70
2022/10/31 03:30:59;;;;;;;10.57;4.82;;;;;;;;;;5056468;28;20047;-70
2022/10/31 03:33:30;;;;;;;8.82;5.10;;;;;;;;;;5047924;28;20025;-71
2022/10/31 03:36:00;;;;;;;9.43;4.72;;;;;;;;;;5042085;28;20037;-70
2022/10/31 03:38:27;;;;;;;9.68;4.47;;;;;;;;;;5043742;28;20092;-71
2022/10/31 03:40:57;;;;;;;10.93;3.85;;;;;;;;;;5048409;28;20032;-70
2022/10/31 03:43:29;;;;;;;12.13;4.53;;;;;;;;;;5042429;28;20060;-70
2022/10/31 03:45:55;;;;;;;8.02;4.57;;;;;;;;;;5048067;28;20045;-71
2022/10/31 03:48:21;;;;;;;8.75;4.10;;;;;;;;;;5036179;28;20028;-70
2022/10/31 03:50:56;;;;;;;7.28;4.28;;;;;;;;;;5046933;28;20116;-70
2022/10/31 03:53:38;;;;;;;6.68;3.92;;;;;;;;;;5046600;28;20034;-70
2022/10/31 03:56:12;;;;;;;9.95;4.80;;;;;;;;;;5045580;28;20040;-70
2022/10/31 03:58:48;;;;;;;10.63;4.35;;;;;;;;;;5067638;28;20536;-70
2022/10/31 04:01:16;;;;;;;11.30;4.68;;;;;;;;;;5038439;28;20522;-70
2022/10/31 04:03:44;;;;;;;9.10;5.15;;;;;;;;;;5049614;28;20064;-70
2022/10/31 04:06:14;;;;;;;11.77;4.68;;;;;;;;;;5049361;28;20048;-71
2022/10/31 04:08:47;;;;;;;8.80;4.68;;;;;;;;;;5027211;28;20136;-70
2022/10/31 04:11:15;;;;;;;9.65;4.60;;;;;;;;;;5028348;28;20037;-70
2022/10/31 04:13:42;;;;;;;9.40;4.38;;;;;;;;;;5031438;28;20041;-70
2022/10/31 04:16:09;;;;;;;11.32;4.57;;;;;;;;;;5041974;28;20589;-70
2022/10/31 04:18:34;;;;;;;13.35;4.55;;;;;;;;;;5044638;28;20059;-70
2022/10/31 04:21:02;;;;;;;9.05;4.00;;;;;;;;;;5047490;28;20057;-70
2022/10/31 04:23:28;;;;;;;10.10;4.55;;;;;;;;;;5034840;28;20030;-70
2022/10/31 04:25:53;;;;;;;10.13;3.83;;;;;;;;;;5027911;28;20045;-70
2022/10/31 04:28:19;;;;;;;10.98;4.22;;;;;;;;;;5029007;28;20120;-70
2022/10/31 04:30:44;;;;;;;8.10;4.18;;;;;;;;;;5045627;28;20025;-70
2022/10/31 04:33:09;;;;;;;9.05;4.32;;;;;;;;;;5048832;28;20037;-71
2022/10/31 04:35:35;;;;;;;7.50;4.03;;;;;;;;;;5049722;28;20039;-71
2022/10/31 04:38:00;;;;;;;8.55;4.05;;;;;;;;;;5048493;28;20114;-70
2022/10/31 04:40:25;;;;;;;9.75;4.60;;;;;;;;;;5047327;28;20036;-70
2022/10/31 04:42:51;;;;;;;8.48;4.00;;;;;;;;;;5047865;28;20028;-70
2022/10/31 04:45:16;;;;;;;8.98;4.82;;;;;;;;;;5046916;28;20045;-70
2022/10/31 04:47:41;;;;;;;9.95;4.13;;;;;;;;;;5047415;28;20592;-71
2022/10/31 04:50:07;;;;;;;9.55;4.22;;;;;;;;;;5046538;28;20441;-70
2022/10/31 04:52:32;;;;;;;8.40;4.75;;;;;;;;;;5045696;28;20033;-70
2022/10/31 04:54:58;;;;;;;8.48;4.32;;;;;;;;;;5047136;28;20063;-70
2022/10/31 04:57:23;;;;;;;9.23;4.65;;;;;;;;;;5042105;28;20028;-71
2022/10/31 04:59:48;;;;;;;12.07;4.85;;;;;;;;;;5036480;28;20040;-70
2022/10/31 05:02:14;;;;;;;8.98;4.70;;;;;;;;;;5040737;28;20036;-70
2022/10/31 05:04:39;;;;;;;10.10;4.35;;;;;;;;;;5040664;28;20769;-70
2022/10/31 05:07:04;;;;;;;7.03;4.05;;;;;;;;;;5047035;28;20057;-70
2022/10/31 05:09:30;;;;;;;9.68;4.50;;;;;;;;;;5046276;28;20021;-70
2022/10/31 05:11:55;;;;;;;9.57;4.70;;;;;;;;;;5044217;28;20128;-70
2022/10/31 05:14:21;;;;;;;8.70;4.43;;;;;;;;;;5046025;28;20041;-70
2022/10/31 05:16:46;;;;;;;11.38;4.88;;;;;;;;;;5049415;28;20053;-70
2022/10/31 05:19:11;;;;;;;10.30;4.70;;;;;;;;;;5038726;28;20043;-70
2022/10/31 05:21:36;;;;;;;11.15;4.63;;;;;;;;;;5046972;28;20500;-70
2022/10/31 05:24:02;;;;;;;7.40;4.05;;;;;;;;;;5047193;28;20709;-70
2022/10/31 05:26:27;;;;;;;9.07;4.80;;;;;;;;;;5046757;28;20053;-70
2022/10/31 05:28:52;;;;;;;9.02;4.45;;;;;;;;;;5045771;28;20045;-70
2022/10/31 05:31:18;;;;;;;11.85;5.25;;;;;;;;;;5042518;28;20045;-70
2022/10/31 05:33:43;;;;;;;10.80;5.05;;;;;;;;;;5034330;28;20075;-70
2022/10/31 05:36:08;;;;;;;9.95;4.40;;;;;;;;;;5047287;28;20047;-70
2022/10/31 05:38:34;;;;;;;13.43;5.55;;;;;;;;;;5049780;28;20433;-70
2022/10/31 05:41:00;;;;;;;10.73;5.13;;;;;;;;;;5041331;28;20060;-70
2022/10/31 05:43:26;;;;;;;8.80;4.45;;;;;;;;;;5042814;28;20116;-70
2022/10/31 05:45:53;;;;;;;11.18;4.88;;;;;;;;;;5025887;28;20125;-70
2022/10/31 05:48:18;;;;;;;10.35;4.65;;;;;;;;;;5043584;28;20029;-70
2022/10/31 05:50:44;;;;;;;9.73;5.03;;;;;;;;;;5045532;28;20029;-70
2022/10/31 05:53:09;;;;;;;9.70;5.18;;;;;;;;;;5048688;28;20455;-70
2022/10/31 05:55:35;;;;;;;8.82;4.93;;;;;;;;;;5048116;28;20510;-70
2022/10/31 05:58:00;;;;;;;13.93;5.40;;;;;;;;;;5051388;28;20549;-70
2022/10/31 06:00:27;;;;;;;11.88;5.13;;;;;;;;;;5041506;28;20036;-70
2022/10/31 06:02:59;;;;;;;10.10;5.53;;;;;;;;;;5034795;28;20078;-70
2022/10/31 06:05:25;;;;;;;9.80;5.68;;;;;;;;;;5045583;28;20601;-70
2022/10/31 06:07:50;;;;;;;10.00;5.00;;;;;;;;;;5046466;28;20127;-70
2022/10/31 06:10:16;;;;;;;11.13;5.43;;;;;;;;;;5039462;28;20037;-70
2022/10/31 06:12:41;;;;;;;11.50;4.93;;;;;;;;;;5045052;28;20190;-70
2022/10/31 06:15:08;;;;;;;44.42;29.88;;;;;;;;;;5047092;28;20035;-71
2022/10/31 06:17:34;;;;;;;19.08;12.70;;;;;;;;;;5048937;28;20041;-70
2022/10/31 06:20:00;;;;;;;12.18;6.20;;;;;;;;;;5026113;28;20510;-70
2022/10/31 06:22:25;;;;;;;12.98;6.18;;;;;;;;;;5036579;28;20049;-70
2022/10/31 06:24:51;;;;;;;13.95;6.30;;;;;;;;;;5042596;28;20691;-71
2022/10/31 06:27:16;;;;;;;12.02;5.93;;;;;;;;;;5026927;28;20507;-70
2022/10/31 06:29:41;;;;;;;11.65;6.13;;;;;;;;;;5028953;28;20043;-71
2022/10/31 06:32:10;;;;;;;13.38;6.05;;;;;;;;;;5041840;28;20037;-70
2022/10/31 06:34:35;;;;;;;12.98;6.65;;;;;;;;;;5046514;28;20045;-71
2022/10/31 06:37:00;;;;;;;13.40;6.65;;;;;;;;;;5043922;28;20043;-70
2022/10/31 06:39:25;;;;;;;14.40;6.75;;;;;;;;;;5044435;28;20057;-70
2022/10/31 06:41:51;;;;;;;14.68;6.47;;;;;;;;;;5046097;28;20084;-70
2022/10/31 06:44:16;;;;;;;16.35;6.97;;;;;;;;;;5040656;28;20052;-70
2022/10/31 06:46:41;;;;;;;14.20;7.22;;;;;;;;;;5045039;28;20518;-70
2022/10/31 06:49:07;;;;;;;13.00;6.38;;;;;;;;;;5047392;28;20040;-70
2022/10/31 06:51:32;;;;;;;14.85;7.05;;;;;;;;;;5049152;28;20056;-70
2022/10/31 06:53:58;;;;;;;14.25;6.47;;;;;;;;;;5042527;28;20128;-71
2022/10/31 06:56:23;;;;;;;15.27;7.03;;;;;;;;;;5042855;28;20037;-70
2022/10/31 06:58:48;;;;;;;16.70;7.88;;;;;;;;;;5046066;28;20174;-70
2022/10/31 07:01:14;;;;;;;17.25;7.38;;;;;;;;;;5048400;28;20517;-71
2022/10/31 07:03:39;;;;;;;16.33;6.95;;;;;;;;;;5048154;28;20077;-70
2022/10/31 07:06:05;;;;;;;15.68;7.00;;;;;;;;;;5048768;28;20037;-70
2022/10/31 07:08:30;;;;;;;14.52;6.32;;;;;;;;;;5043428;28;20484;-70
2022/10/31 07:10:56;;;;;;;14.38;6.65;;;;;;;;;;5046136;28;20548;-70
2022/10/31 07:13:25;;;;;;;17.30;7.35;;;;;;;;;;5029520;28;20045;-70
2022/10/31 07:15:52;;;;;;;17.58;7.90;;;;;;;;;;5032224;28;20028;-70
2022/10/31 07:18:17;;;;;;;22.77;9.65;;;;;;;;;;5047076;28;20032;-70
2022/10/31 07:20:43;;;;;;;19.00;8.68;;;;;;;;;;5029962;28;20050;-70
2022/10/31 07:23:11;;;;;;;18.38;9.30;;;;;;;;;;5029280;28;20046;-71
2022/10/31 07:25:38;;;;;;;20.60;9.52;;;;;;;;;;5039568;28;20045;-70
2022/10/31 07:28:03;;;;;;;21.65;8.38;;;;;;;;;;5046089;28;20040;-70
2022/10/31 07:30:29;;;;;;;14.90;7.53;;;;;;;;;;5045146;28;20029;-70
2022/10/31 07:32:55;;;;;;;14.65;7.15;;;;;;;;;;5049106;28;20051;-71
2022/10/31 07:35:23;;;;;;;16.38;7.72;;;;;;;;;;5046844;28;20040;-71
2022/10/31 07:37:49;;;;;;;15.98;7.78;;;;;;;;;;5044702;28;20441;-71
2022/10/31 07:40:15;;;;;;;17.02;7.00;;;;;;;;;;5044625;28;20065;-71
2022/10/31 07:42:42;;;;;;;18.73;7.50;;;;;;;;;;5042599;28;20099;-71
2022/10/31 07:45:10;;;;;;;10.88;6.07;;;;;;;;;;5044821;28;20522;-71
2022/10/31 07:47:39;;;;;;;17.55;8.23;;;;;;;;;;5042226;28;20060;-70
2022/10/31 07:50:05;;;;;;;17.83;8.02;;;;;;;;;;5040050;28;20690;-71
2022/10/31 07:52:32;;;;;;;18.60;8.32;;;;;;;;;;5036140;28;20148;-70
2022/10/31 07:54:57;;;;;;;18.58;8.88;;;;;;;;;;5038788;28;20032;-71
2022/10/31 07:57:23;;;;;;;21.63;8.52;;;;;;;;;;5031723;28;20055;-70
2022/10/31 07:59:48;;;;;;;18.58;7.68;;;;;;;;;;5043445;28;20114;-70
2022/10/31 08:02:13;;;;;;;15.13;7.03;;;;;;;;;;5040823;28;20067;-71
2022/10/31 08:04:39;;;;;;;10.98;6.63;;;;;;;;;;5041018;28;20032;-71
2022/10/31 08:07:04;;;;;;;18.20;7.55;;;;;;;;;;5043192;28;20064;-71
2022/10/31 08:09:29;;;;;;;19.08;7.63;;;;;;;;;;5042956;28;20035;-71
2022/10/31 08:11:54;;;;;;;16.70;6.75;;;;;;;;;;5043485;28;20064;-70
2022/10/31 08:14:20;;;;;;;19.45;7.50;;;;;;;;;;5036128;28;20033;-70
2022/10/31 08:16:46;;;;;;;14.23;6.38;;;;;;;;;;5042306;28;20500;-70
2022/10/31 08:19:11;;;;;;;15.68;7.18;;;;;;;;;;5040204;28;20047;-70
2022/10/31 08:21:36;;;;;;;13.73;6.97;;;;;;;;;;5037014;28;20036;-70
2022/10/31 08:24:02;;;;;;;12.63;6.95;;;;;;;;;;5035515;28;20044;-70
2022/10/31 08:26:27;;;;;;;22.13;8.30;;;;;;;;;;5038040;28;20044;-71
2022/10/31 08:28:54;;;;;;;17.48;7.82;;;;;;;;;;5053289;28;20045;-71
2022/10/31 08:31:20;;;;;;;15.82;7.28;;;;;;;;;;5040274;28;20037;-71
2022/10/31 08:33:45;;;;;;;16.95;7.47;;;;;;;;;;5043985;28;20029;-70
2022/10/31 08:36:10;;;;;;;15.65;7.35;;;;;;;;;;5037376;28;20032;-70
2022/10/31 08:38:36;;;;;;;16.90;7.40;;;;;;;;;;5039062;28;20033;-70
2022/10/31 08:41:01;;;;;;;16.15;7.22;;;;;;;;;;5034631;28;20041;-70
2022/10/31 08:43:26;;;;;;;17.02;7.43;;;;;;;;;;5042551;28;20102;-71
2022/10/31 08:45:54;;;;;;;14.20;6.95;;;;;;;;;;5039830;28;20041;-70
2022/10/31 08:48:20;;;;;;;17.60;7.88;;;;;;;;;;5038689;28;20029;-70
2022/10/31 08:50:46;;;;;;;17.25;6.88;;;;;;;;;;5030514;28;20040;-70
2022/10/31 08:53:16;;;;;;;16.60;7.60;;;;;;;;;;5041464;28;20130;-70
2022/10/31 08:55:43;;;;;;;19.73;8.95;;;;;;;;;;5033443;28;20033;-71
2022/10/31 08:58:17;;;;;;;15.35;8.20;;;;;;;;;;5038347;28;20059;-70
2022/10/31 09:00:42;;;;;;;;;;;;;;;;;;5035282;28;20037;-70
2022/10/31 09:03:13;;;;;;;19.30;8.10;;;;;;;;;;5035459;28;19928;-70
2022/10/31 09:05:40;;;;;;;20.52;8.32;;;;;;;;;;5038128;28;20048;-71
2022/10/31 09:08:06;;;;;;;15.68;7.57;;;;;;;;;;5045065;28;20534;-71
2022/10/31 09:10:34;;;;;;;23.15;9.43;;;;;;;;;;5044749;28;20040;-70
2022/10/31 09:13:08;;;;;;;18.33;8.77;;;;;;;;;;5033716;28;20533;-70
2022/10/31 09:15:38;;;;;;;23.83;8.23;;;;;;;;;;5045636;28;20797;-71
2022/10/31 09:18:03;;;;;;;21.65;9.30;;;;;;;;;;5042156;28;20069;-70
2022/10/31 09:20:30;;;;;;;25.95;9.52;;;;;;;;;;5041790;28;20794;-70
2022/10/31 09:23:01;;;;;;;24.30;9.93;;;;;;;;;;5032855;28;20099;-70
2022/10/31 09:25:28;;;;;;;21.67;9.23;;;;;;;;;;5027839;28;20043;-70
2022/10/31 09:27:57;;;;;;;24.67;9.55;;;;;;;;;;5044360;28;20711;-71
2022/10/31 09:30:23;;;;;;;22.98;9.20;;;;;;;;;;5044822;28;20016;-71
2022/10/31 09:32:55;;;;;;;22.23;10.38;;;;;;;;;;5044958;28;20025;-71
2022/10/31 09:35:20;;;;;;;23.73;8.93;;;;;;;;;;5031661;28;20029;-71
2022/10/31 09:37:45;;;;;;;23.75;10.52;;;;;;;;;;5028936;28;20071;-71
2022/10/31 09:40:10;;;;;;;25.08;9.82;;;;;;;;;;5040735;28;20060;-71
2022/10/31 09:42:55;;;;;;;20.98;9.52;;;;;;;;;;5038559;28;20782;-71
2022/10/31 09:45:43;;;;;;;19.75;10.43;;;;;;;;;;5043133;28;20057;-72
2022/10/31 09:48:17;;;;;;;21.13;10.13;;;;;;;;;;5042128;28;20416;-72
2022/10/31 09:51:10;;;;;;;24.75;9.50;;;;;;;;;;5036410;28;20089;-73
2022/10/31 09:53:57;;;;;;;23.85;9.77;;;;;;;;;;5031186;28;20056;-72
2022/10/31 09:56:25;;;;;;;24.20;10.77;;;;;;;;;;5030764;28;20034;-72
2022/10/31 09:58:55;;;;;;;20.42;8.82;;;;;;;;;;5035399;28;20116;-72
2022/10/31 10:01:39;;;;;;;21.55;9.38;;;;;;;;;;5027181;28;20047;-72
2022/10/31 10:04:45;;;;;;;23.65;10.20;;;;;;;;;;5039275;28;20136;-72
2022/10/31 10:07:26;;;;;;;20.40;8.88;;;;;;;;;;5020357;28;20040;-72
2022/10/31 10:09:52;;;;;;;20.38;8.73;;;;;;;;;;5040770;28;20055;-72
2022/10/31 10:12:35;;;;;;;22.35;8.35;;;;;;;;;;5041624;28;20533;-73
2022/10/31 10:15:07;;;;;;;;;;;;;;;;;;5037362;28;20037;-73
2022/10/31 10:17:54;;;;;;;23.02;8.85;;;;;;;;;;5035377;28;19917;-72
2022/10/31 10:20:44;;;;;;;19.70;9.00;;;;;;;;;;5033331;28;20048;-73
2022/10/31 10:23:35;;;;;;;18.92;7.80;;;;;;;;;;5040125;28;20204;-72
2022/10/31 10:26:16;;;;;;;18.85;8.10;;;;;;;;;;5043494;28;20044;-72
2022/10/31 10:28:44;;;;;;;20.55;8.65;;;;;;;;;;5049324;28;20033;-72
2022/10/31 10:31:21;;;;;;;21.45;8.23;;;;;;;;;;5041016;28;20067;-72
2022/10/31 10:34:18;;;;;;;20.42;8.98;;;;;;;;;;5034115;28;20021;-72
2022/10/31 10:36:47;;;;;;;17.88;8.48;;;;;;;;;;5040883;28;20024;-72
2022/10/31 10:39:29;;;;;;;16.50;7.63;;;;;;;;;;5041343;28;20041;-72
2022/10/31 10:47:38;;;;;;;19.55;8.10;;;;;;;;;;5036116;28;20903;-71
2022/10/31 10:50:13;;;;;;;18.70;8.25;;;;;;;;;;5041509;28;20124;-71
2022/10/31 10:52:47;;;;;;;18.27;8.55;;;;;;;;;;5037438;28;20082;-68
2022/10/31 10:55:19;;;;;;;15.25;7.50;;;;;;;;;;5032540;28;20865;-68
2022/10/31 10:57:59;;;;;;;20.05;8.48;;;;;;;;;;5029954;28;20087;-69
2022/10/31 11:00:49;;;;;;;18.52;8.25;;;;;;;;;;5066777;28;20044;-68
2022/10/31 11:03:15;;;;;;;16.90;7.82;;;;;;;;;;5056678;28;20064;-68
2022/10/31 11:05:51;;;;;;;16.95;8.27;;;;;;;;;;5042264;28;20036;-68
2022/10/31 11:08:43;;;;;;;20.30;8.38;;;;;;;;;;5039909;28;20056;-72
2022/10/31 11:11:25;;;;;;;23.00;8.45;;;;;;;;;;5043287;28;20533;-72
2022/10/31 11:13:56;;;;;;;18.65;7.25;;;;;;;;;;5039945;28;20036;-84
2022/10/31 11:16:32;;;;;;;17.67;8.23;;;;;;;;;;5041791;28;20503;-79
2022/10/31 11:19:08;;;;;;;18.88;8.05;;;;;;;;;;5019535;28;20032;-80
2022/10/31 11:21:34;;;;;;;18.73;7.95;;;;;;;;;;5040437;28;20055;-79
2022/10/31 11:24:09;;;;;;;17.55;8.15;;;;;;;;;;5042584;28;20738;-79
2022/10/31 11:26:35;;;;;;;14.98;8.43;;;;;;;;;;5038315;28;20099;-79
2022/10/31 11:29:02;;;;;;;17.88;8.27;;;;;;;;;;5026830;28;20044;-79
2022/10/31 11:31:29;;;;;;;15.98;7.28;;;;;;;;;;5028119;28;20064;-80
2022/10/31 11:34:07;;;;;;;17.95;8.13;;;;;;;;;;5027468;28;20037;-80
2022/10/31 11:36:36;;;;;;;18.42;7.88;;;;;;;;;;5036551;28;20039;-78
2022/10/31 11:39:03;;;;;;;20.02;7.88;;;;;;;;;;5039611;28;20076;-77
2022/10/31 11:41:32;;;;;;;19.83;8.00;;;;;;;;;;5040312;28;20056;-78
2022/10/31 11:44:09;;;;;;;15.57;8.02;;;;;;;;;;5037644;28;20108;-78
2022/10/31 11:46:41;;;;;;;19.45;7.65;;;;;;;;;;5050136;28;20049;-79
2022/10/31 11:49:16;;;;;;;18.65;8.25;;;;;;;;;;5045736;28;20576;-79
2022/10/31 11:51:41;;;;;;;16.75;8.05;;;;;;;;;;5048105;28;20024;-79
2022/10/31 11:54:22;;;;;;;15.40;7.85;;;;;;;;;;5043193;28;20044;-79
2022/10/31 11:56:47;;;;;;;14.55;7.85;;;;;;;;;;5047862;28;20041;-79
2022/10/31 11:59:22;;;;;;;14.38;6.53;;;;;;;;;;5046898;28;20468;-78
2022/10/31 12:01:49;;;;;;;13.70;7.90;;;;;;;;;;5044963;28;20034;-79
2022/10/31 12:04:16;;;;;;;16.23;7.75;;;;;;;;;;5034587;28;20048;-79
2022/10/31 12:06:45;;;;;;;13.57;7.05;;;;;;;;;;5047076;28;20486;-79
2022/10/31 12:09:22;;;;;;;15.93;7.53;;;;;;;;;;5047413;28;20051;-78
2022/10/31 12:12:12;;;;;;;14.13;6.70;;;;;;;;;;5047590;28;20036;-78
2022/10/31 12:15:15;;;;;;;14.40;6.65;;;;;;;;;;5044797;28;20522;-78
2022/10/31 12:18:02;;;;;;;19.33;8.13;;;;;;;;;;5041014;28;20584;-79
2022/10/31 12:20:39;;;;;;;18.70;7.75;;;;;;;;;;5045518;28;20514;-78
2022/10/31 12:23:35;;;;;;;15.10;7.30;;;;;;;;;;5027980;28;20045;-78
2022/10/31 12:26:21;;;;;;;16.20;7.63;;;;;;;;;;5025375;28;20037;-80
2022/10/31 12:29:06;;;;;;;15.00;6.93;;;;;;;;;;5037990;28;20120;-78
2022/10/31 12:32:23;;;;;;;14.95;6.07;;;;;;;;;;5045617;28;20045;-78
2022/10/31 12:34:58;;;;;;;17.42;7.63;;;;;;;;;;5028992;28;20136;-76
2022/10/31 12:37:38;;;;;;;13.13;7.00;;;;;;;;;;5034898;28;20033;-76
2022/10/31 12:40:09;;;;;;;19.13;7.80;;;;;;;;;;5041634;28;20099;-75
2022/10/31 12:42:44;;;;;;;18.98;7.75;;;;;;;;;;5044735;28;20514;-76
2022/10/31 12:45:27;;;;;;;18.58;8.38;;;;;;;;;;5025306;28;20077;-75
2022/10/31 12:47:59;;;;;;;15.35;6.95;;;;;;;;;;5039987;28;20033;-75
2022/10/31 12:50:34;;;;;;;12.88;7.20;;;;;;;;;;5043323;28;20032;-75
2022/10/31 12:53:12;;;;;;;17.40;7.00;;;;;;;;;;5026841;28;20053;-76
2022/10/31 12:55:44;;;;;;;15.80;7.28;;;;;;;;;;5041454;28;20108;-75
2022/10/31 12:58:13;;;;;;;15.70;6.88;;;;;;;;;;5046934;28;20041;-75
2022/10/31 13:00:44;;;;;;;15.65;6.32;;;;;;;;;;5043339;28;20029;-75
2022/10/31 13:03:23;;;;;;;14.82;5.03;;;;;;;;;;5044640;28;20640;-75
2022/10/31 13:05:54;;;;;;;10.63;3.85;;;;;;;;;;5046264;28;20163;-76
2022/10/31 13:08:36;;;;;;;9.52;4.55;;;;;;;;;;5044353;28;20132;-76
2022/10/31 13:11:15;;;;;;;8.38;4.20;;;;;;;;;;5061382;28;20021;-76
2022/10/31 13:13:49;;;;;;;9.52;4.47;;;;;;;;;;5044913;28;20080;-75
2022/10/31 13:16:26;;;;;;;14.10;4.60;;;;;;;;;;5035983;28;20032;-76
2022/10/31 13:18:57;;;;;;;9.95;4.85;;;;;;;;;;5038505;28;20028;-80
2022/10/31 13:21:37;;;;;;;11.82;5.00;;;;;;;;;;5045652;28;20509;-79
2022/10/31 13:24:05;;;;;;;10.45;4.57;;;;;;;;;;5025325;28;20553;-79
2022/10/31 13:26:48;;;;;;;11.20;4.35;;;;;;;;;;5025807;28;20039;-79
2022/10/31 13:29:29;;;;;;;7.93;4.30;;;;;;;;;;5039313;28;20098;-79
2022/10/31 13:31:54;;;;;;;10.48;3.83;;;;;;;;;;5041843;28;20036;-80
2022/10/31 13:34:25;;;;;;;14.30;4.35;;;;;;;;;;5030866;28;20041;-80
2022/10/31 13:36:59;;;;;;;14.32;4.00;;;;;;;;;;5025085;28;20124;-80
2022/10/31 13:39:28;;;;;;;7.38;3.25;;;;;;;;;;5055520;28;20036;-80
2022/10/31 13:42:02;;;;;;;10.23;3.83;;;;;;;;;;5040357;28;20472;-81
2022/10/31 13:44:30;;;;;;;10.10;3.47;;;;;;;;;;5044532;28;20071;-80
2022/10/31 13:46:58;;;;;;;8.05;4.25;;;;;;;;;;5039829;28;20906;-80
2022/10/31 13:49:37;;;;;;;9.98;3.85;;;;;;;;;;5042722;28;20059;-80
2022/10/31 13:52:08;;;;;;;9.45;3.95;;;;;;;;;;5047435;28;20529;-80
2022/10/31 13:54:36;;;;;;;9.82;3.70;;;;;;;;;;5043695;28;20029;-80
2022/10/31 13:57:02;;;;;;;8.60;4.72;;;;;;;;;;5045066;28;20031;-79
2022/10/31 13:59:31;;;;;;;7.55;3.67;;;;;;;;;;5050149;28;20119;-79
2022/10/31 14:02:10;;;;;;;7.32;3.75;;;;;;;;;;5040353;28;20036;-79
2022/10/31 14:04:52;;;;;;;8.18;3.63;;;;;;;;;;5042068;28;20041;-79
2022/10/31 14:07:21;;;;;;;7.53;3.67;;;;;;;;;;5039158;28;20048;-79
2022/10/31 14:10:01;;;;;;;8.98;3.47;;;;;;;;;;5039837;28;20032;-78
2022/10/31 14:12:39;;;;;;;12.88;3.15;;;;;;;;;;5041902;28;20028;-78
2022/10/31 14:15:04;;;;;;;8.45;2.72;;;;;;;;;;5046197;28;20037;-79
2022/10/31 14:17:39;;;;;;;5.15;2.53;;;;;;;;;;5047895;28;20040;-79
2022/10/31 14:20:10;;;;;;;8.32;3.08;;;;;;;;;;5047989;28;20033;-78
2022/10/31 14:22:38;;;;;;;4.10;2.50;;;;;;;;;;5045601;28;20101;-79
2022/10/31 14:25:29;;;;;;;8.20;3.03;;;;;;;;;;5048362;28;20026;-79
2022/10/31 14:27:56;;;;;;;6.78;3.30;;;;;;;;;;5049650;28;20025;-79
2022/10/31 14:30:24;;;;;;;7.43;2.88;;;;;;;;;;5047594;28;20098;-79
2022/10/31 14:32:53;;;;;;;7.15;2.88;;;;;;;;;;5047511;28;20052;-79
2022/10/31 14:35:20;;;;;;;8.45;2.85;;;;;;;;;;5047539;28;20036;-79
2022/10/31 14:38:13;;;;;;;8.90;3.50;;;;;;;;;;5048521;28;20082;-79
2022/10/31 14:40:53;;;;;;;12.53;3.80;;;;;;;;;;5048480;28;20041;-79
2022/10/31 14:43:41;;;;;;;6.72;3.08;;;;;;;;;;5040215;28;20085;-79
2022/10/31 14:46:41;;;;;;;5.82;2.92;;;;;;;;;;5053231;28;20041;-79
2022/10/31 14:49:21;;;;;;;7.13;3.70;;;;;;;;;;5046404;28;20044;-79
2022/10/31 14:51:49;;;;;;;11.20;3.90;;;;;;;;;;5038274;28;20074;-78
2022/10/31 14:54:38;;;;;;;8.38;3.47;;;;;;;;;;5045663;28;20028;-79
2022/10/31 14:57:31;;;;;;;8.88;3.65;;;;;;;;;;5034349;28;20049;-79
2022/10/31 15:00:02;;;;;;;15.45;4.25;;;;;;;;;;5036904;28;20458;-79